sensor_id;sensor_type;location;lat;lon;timestamp;P1;durP1;ratioP1;P2;durP2;ratioP2
12296;SDS011;6211;49.124;9.152;2023-11-22T00:01:19;2.22;;;1.67;;
12296;SDS011;6211;49.124;9.152;2023-11-22T00:03:46;2.15;;;1.85;;
12296;SDS011;6211;49.124;9.152;2023-11-22T00:06:15;2.13;;;1.83;;
12296;SDS011;6211;49.124;9.152;2023-11-22T00:08:45;2.35;;;1.65;;
12296;SDS011;6211;49.124;9.152;2023-11-22T00:11:13;2.60;;;2.10;;
12296;SDS011;6211;49.124;9.152;2023-11-22T00:13:40;2.30;;;1.60;;
12296;SDS011;6211;49.124;9.152;2023-11-22T00:16:08;2.45;;;1.67;;
12296;SDS011;6211;49.124;9.152;2023-11-22T00:18:36;1.70;;;1.60;;
12296;SDS011;6211;49.124;9.152;2023-11-22T00:21:04;1.70;;;1.60;;
12296;SDS011;6211;49.124;9.152;2023-11-22T00:23:31;1.58;;;1.48;;
12296;SDS011;6211;49.124;9.152;2023-11-22T00:25:58;1.60;;;1.48;;
12296;SDS011;6211;49.124;9.152;2023-11-22T00:28:25;1.90;;;1.70;;
12296;SDS011;6211;49.124;9.152;2023-11-22T00:30:52;1.83;;;1.67;;
12296;SDS011;6211;49.124;9.152;2023-11-22T00:33:21;2.75;;;1.58;;
12296;SDS011;6211;49.124;9.152;2023-11-22T00:35:48;2.10;;;1.50;;
12296;SDS011;6211;49.124;9.152;2023-11-22T00:38:15;4.70;;;1.60;;
12296;SDS011;6211;49.124;9.152;2023-11-22T00:40:42;2.00;;;1.73;;
12296;SDS011;6211;49.124;9.152;2023-11-22T00:43:09;3.20;;;1.80;;
12296;SDS011;6211;49.124;9.152;2023-11-22T00:45:36;1.85;;;1.42;;
12296;SDS011;6211;49.124;9.152;2023-11-22T00:48:04;3.17;;;2.00;;
12296;SDS011;6211;49.124;9.152;2023-11-22T00:50:32;2.78;;;1.90;;
12296;SDS011;6211;49.124;9.152;2023-11-22T00:52:59;3.17;;;1.85;;
12296;SDS011;6211;49.124;9.152;2023-11-22T00:55:26;3.25;;;1.75;;
12296;SDS011;6211;49.124;9.152;2023-11-22T00:57:54;2.47;;;1.77;;
12296;SDS011;6211;49.124;9.152;2023-11-22T01:00:26;3.05;;;1.73;;
12296;SDS011;6211;49.124;9.152;2023-11-22T01:02:54;5.07;;;2.45;;
12296;SDS011;6211;49.124;9.152;2023-11-22T01:05:21;2.13;;;1.83;;
12296;SDS011;6211;49.124;9.152;2023-11-22T01:07:50;2.35;;;1.98;;
12296;SDS011;6211;49.124;9.152;2023-11-22T01:10:17;1.65;;;1.55;;
12296;SDS011;6211;49.124;9.152;2023-11-22T01:12:45;1.67;;;1.58;;
12296;SDS011;6211;49.124;9.152;2023-11-22T01:15:13;2.25;;;1.95;;
12296;SDS011;6211;49.124;9.152;2023-11-22T01:17:40;1.55;;;1.45;;
12296;SDS011;6211;49.124;9.152;2023-11-22T01:20:07;2.05;;;1.83;;
12296;SDS011;6211;49.124;9.152;2023-11-22T01:22:36;3.80;;;2.08;;
12296;SDS011;6211;49.124;9.152;2023-11-22T01:25:05;3.00;;;2.15;;
12296;SDS011;6211;49.124;9.152;2023-11-22T01:27:33;3.42;;;2.00;;
12296;SDS011;6211;49.124;9.152;2023-11-22T01:30:00;1.98;;;1.75;;
12296;SDS011;6211;49.124;9.152;2023-11-22T01:32:28;2.10;;;1.70;;
12296;SDS011;6211;49.124;9.152;2023-11-22T01:34:56;2.15;;;1.95;;
12296;SDS011;6211;49.124;9.152;2023-11-22T01:37:24;2.20;;;1.98;;
12296;SDS011;6211;49.124;9.152;2023-11-22T01:39:52;2.28;;;2.08;;
12296;SDS011;6211;49.124;9.152;2023-11-22T01:42:21;2.63;;;1.88;;
12296;SDS011;6211;49.124;9.152;2023-11-22T01:44:48;2.75;;;1.95;;
12296;SDS011;6211;49.124;9.152;2023-11-22T01:47:16;3.20;;;1.98;;
12296;SDS011;6211;49.124;9.152;2023-11-22T01:49:43;2.25;;;1.90;;
12296;SDS011;6211;49.124;9.152;2023-11-22T01:52:10;2.17;;;1.95;;
12296;SDS011;6211;49.124;9.152;2023-11-22T01:54:37;1.85;;;1.75;;
12296;SDS011;6211;49.124;9.152;2023-11-22T01:57:05;2.72;;;1.92;;
12296;SDS011;6211;49.124;9.152;2023-11-22T01:59:35;3.22;;;2.10;;
12296;SDS011;6211;49.124;9.152;2023-11-22T02:02:03;1.70;;;1.60;;
12296;SDS011;6211;49.124;9.152;2023-11-22T02:04:30;3.15;;;2.15;;
12296;SDS011;6211;49.124;9.152;2023-11-22T02:06:57;3.47;;;2.08;;
12296;SDS011;6211;49.124;9.152;2023-11-22T02:09:24;3.58;;;1.77;;
12296;SDS011;6211;49.124;9.152;2023-11-22T02:11:51;1.80;;;1.58;;
12296;SDS011;6211;49.124;9.152;2023-11-22T02:14:18;1.58;;;1.48;;
12296;SDS011;6211;49.124;9.152;2023-11-22T02:16:47;1.50;;;1.40;;
12296;SDS011;6211;49.124;9.152;2023-11-22T02:19:15;2.13;;;1.58;;
12296;SDS011;6211;49.124;9.152;2023-11-22T02:21:42;1.73;;;1.45;;
12296;SDS011;6211;49.124;9.152;2023-11-22T02:24:11;1.95;;;1.77;;
12296;SDS011;6211;49.124;9.152;2023-11-22T02:26:42;2.40;;;1.58;;
12296;SDS011;6211;49.124;9.152;2023-11-22T02:29:10;2.22;;;1.60;;
12296;SDS011;6211;49.124;9.152;2023-11-22T02:31:38;2.55;;;1.55;;
12296;SDS011;6211;49.124;9.152;2023-11-22T02:34:06;1.42;;;1.30;;
12296;SDS011;6211;49.124;9.152;2023-11-22T02:36:33;2.53;;;1.40;;
12296;SDS011;6211;49.124;9.152;2023-11-22T02:39:01;1.50;;;1.40;;
12296;SDS011;6211;49.124;9.152;2023-11-22T02:41:29;1.85;;;1.40;;
12296;SDS011;6211;49.124;9.152;2023-11-22T02:43:57;2.20;;;1.77;;
12296;SDS011;6211;49.124;9.152;2023-11-22T02:46:25;4.60;;;1.60;;
12296;SDS011;6211;49.124;9.152;2023-11-22T02:48:52;1.50;;;1.40;;
12296;SDS011;6211;49.124;9.152;2023-11-22T02:51:20;2.60;;;2.03;;
12296;SDS011;6211;49.124;9.152;2023-11-22T02:53:47;2.65;;;1.98;;
12296;SDS011;6211;49.124;9.152;2023-11-22T02:56:15;1.65;;;1.55;;
12296;SDS011;6211;49.124;9.152;2023-11-22T02:58:43;1.52;;;1.42;;
12296;SDS011;6211;49.124;9.152;2023-11-22T03:01:11;1.95;;;1.77;;
12296;SDS011;6211;49.124;9.152;2023-11-22T03:03:38;2.70;;;1.98;;
12296;SDS011;6211;49.124;9.152;2023-11-22T03:06:06;2.03;;;1.50;;
12296;SDS011;6211;49.124;9.152;2023-11-22T03:08:33;2.03;;;1.90;;
12296;SDS011;6211;49.124;9.152;2023-11-22T03:11:12;1.98;;;1.70;;
12296;SDS011;6211;49.124;9.152;2023-11-22T03:13:39;2.10;;;1.55;;
12296;SDS011;6211;49.124;9.152;2023-11-22T03:16:09;3.60;;;1.60;;
12296;SDS011;6211;49.124;9.152;2023-11-22T03:18:36;2.55;;;1.75;;
12296;SDS011;6211;49.124;9.152;2023-11-22T03:21:05;1.70;;;1.50;;
12296;SDS011;6211;49.124;9.152;2023-11-22T03:23:32;2.13;;;1.70;;
12296;SDS011;6211;49.124;9.152;2023-11-22T03:25:59;1.58;;;1.45;;
12296;SDS011;6211;49.124;9.152;2023-11-22T03:28:26;1.80;;;1.35;;
12296;SDS011;6211;49.124;9.152;2023-11-22T03:30:55;1.30;;;1.20;;
12296;SDS011;6211;49.124;9.152;2023-11-22T03:33:25;1.77;;;1.40;;
12296;SDS011;6211;49.124;9.152;2023-11-22T03:35:52;2.20;;;1.85;;
12296;SDS011;6211;49.124;9.152;2023-11-22T03:38:19;1.77;;;1.50;;
12296;SDS011;6211;49.124;9.152;2023-11-22T03:40:48;1.63;;;1.52;;
12296;SDS011;6211;49.124;9.152;2023-11-22T03:43:15;1.92;;;1.48;;
12296;SDS011;6211;49.124;9.152;2023-11-22T03:45:42;1.45;;;1.35;;
12296;SDS011;6211;49.124;9.152;2023-11-22T03:48:09;3.28;;;1.23;;
12296;SDS011;6211;49.124;9.152;2023-11-22T03:50:38;1.92;;;1.40;;
12296;SDS011;6211;49.124;9.152;2023-11-22T03:53:05;2.00;;;1.55;;
12296;SDS011;6211;49.124;9.152;2023-11-22T03:55:32;1.50;;;1.40;;
12296;SDS011;6211;49.124;9.152;2023-11-22T03:57:59;1.33;;;1.23;;
12296;SDS011;6211;49.124;9.152;2023-11-22T04:00:27;2.20;;;1.90;;
12296;SDS011;6211;49.124;9.152;2023-11-22T04:02:54;2.05;;;1.65;;
12296;SDS011;6211;49.124;9.152;2023-11-22T04:05:24;2.42;;;2.08;;
12296;SDS011;6211;49.124;9.152;2023-11-22T04:07:52;3.42;;;1.60;;
12296;SDS011;6211;49.124;9.152;2023-11-22T04:10:21;1.58;;;1.02;;
12296;SDS011;6211;49.124;9.152;2023-11-22T04:12:48;1.63;;;1.52;;
12296;SDS011;6211;49.124;9.152;2023-11-22T04:15:15;2.03;;;1.50;;
12296;SDS011;6211;49.124;9.152;2023-11-22T04:17:43;4.53;;;1.73;;
12296;SDS011;6211;49.124;9.152;2023-11-22T04:20:10;1.90;;;1.73;;
12296;SDS011;6211;49.124;9.152;2023-11-22T04:22:39;1.38;;;1.27;;
12296;SDS011;6211;49.124;9.152;2023-11-22T04:25:08;2.25;;;1.50;;
12296;SDS011;6211;49.124;9.152;2023-11-22T04:27:38;1.58;;;1.45;;
12296;SDS011;6211;49.124;9.152;2023-11-22T04:30:06;1.92;;;1.50;;
12296;SDS011;6211;49.124;9.152;2023-11-22T04:32:38;2.03;;;1.75;;
12296;SDS011;6211;49.124;9.152;2023-11-22T04:35:06;1.50;;;1.40;;
12296;SDS011;6211;49.124;9.152;2023-11-22T04:37:33;2.95;;;1.85;;
12296;SDS011;6211;49.124;9.152;2023-11-22T04:40:00;1.88;;;1.52;;
12296;SDS011;6211;49.124;9.152;2023-11-22T04:42:30;1.52;;;1.15;;
12296;SDS011;6211;49.124;9.152;2023-11-22T04:44:57;1.52;;;1.42;;
12296;SDS011;6211;49.124;9.152;2023-11-22T04:47:24;1.50;;;1.40;;
12296;SDS011;6211;49.124;9.152;2023-11-22T04:49:51;2.60;;;1.60;;
12296;SDS011;6211;49.124;9.152;2023-11-22T04:52:19;1.65;;;1.30;;
12296;SDS011;6211;49.124;9.152;2023-11-22T04:54:46;2.13;;;1.75;;
12296;SDS011;6211;49.124;9.152;2023-11-22T04:57:13;1.50;;;1.40;;
12296;SDS011;6211;49.124;9.152;2023-11-22T04:59:41;1.90;;;1.50;;
12296;SDS011;6211;49.124;9.152;2023-11-22T05:02:09;2.13;;;1.83;;
12296;SDS011;6211;49.124;9.152;2023-11-22T05:04:36;1.70;;;1.60;;
12296;SDS011;6211;49.124;9.152;2023-11-22T05:07:03;2.20;;;1.50;;
12296;SDS011;6211;49.124;9.152;2023-11-22T05:09:30;1.88;;;1.52;;
12296;SDS011;6211;49.124;9.152;2023-11-22T05:11:58;1.98;;;1.63;;
12296;SDS011;6211;49.124;9.152;2023-11-22T05:14:25;2.47;;;1.92;;
12296;SDS011;6211;49.124;9.152;2023-11-22T05:16:53;1.15;;;1.08;;
12296;SDS011;6211;49.124;9.152;2023-11-22T05:19:21;1.45;;;1.35;;
12296;SDS011;6211;49.124;9.152;2023-11-22T05:21:48;3.25;;;1.13;;
12296;SDS011;6211;49.124;9.152;2023-11-22T05:24:16;2.25;;;1.67;;
12296;SDS011;6211;49.124;9.152;2023-11-22T05:26:43;1.23;;;1.10;;
12296;SDS011;6211;49.124;9.152;2023-11-22T05:29:10;1.13;;;1.05;;
12296;SDS011;6211;49.124;9.152;2023-11-22T05:31:37;1.02;;;1.02;;
12296;SDS011;6211;49.124;9.152;2023-11-22T05:34:06;1.35;;;1.00;;
12296;SDS011;6211;49.124;9.152;2023-11-22T05:36:33;1.20;;;0.80;;
12296;SDS011;6211;49.124;9.152;2023-11-22T05:39:00;2.13;;;1.38;;
12296;SDS011;6211;49.124;9.152;2023-11-22T05:41:29;1.15;;;1.05;;
12296;SDS011;6211;49.124;9.152;2023-11-22T05:43:56;1.58;;;1.33;;
12296;SDS011;6211;49.124;9.152;2023-11-22T05:46:23;2.63;;;1.67;;
12296;SDS011;6211;49.124;9.152;2023-11-22T05:48:50;1.27;;;1.17;;
12296;SDS011;6211;49.124;9.152;2023-11-22T05:51:19;1.65;;;1.25;;
12296;SDS011;6211;49.124;9.152;2023-11-22T05:53:46;1.33;;;1.25;;
12296;SDS011;6211;49.124;9.152;2023-11-22T05:56:14;2.42;;;1.30;;
12296;SDS011;6211;49.124;9.152;2023-11-22T05:58:42;1.05;;;0.95;;
12296;SDS011;6211;49.124;9.152;2023-11-22T06:01:09;1.80;;;1.20;;
12296;SDS011;6211;49.124;9.152;2023-11-22T06:03:37;6.22;;;1.50;;
12296;SDS011;6211;49.124;9.152;2023-11-22T06:06:05;1.42;;;1.33;;
12296;SDS011;6211;49.124;9.152;2023-11-22T06:08:34;0.93;;;0.82;;
12296;SDS011;6211;49.124;9.152;2023-11-22T06:11:01;1.15;;;1.13;;
12296;SDS011;6211;49.124;9.152;2023-11-22T06:13:28;1.27;;;1.10;;
12296;SDS011;6211;49.124;9.152;2023-11-22T06:15:56;1.35;;;1.25;;
12296;SDS011;6211;49.124;9.152;2023-11-22T06:18:23;1.65;;;1.55;;
12296;SDS011;6211;49.124;9.152;2023-11-22T06:20:54;3.03;;;1.08;;
12296;SDS011;6211;49.124;9.152;2023-11-22T06:23:22;2.35;;;1.30;;
12296;SDS011;6211;49.124;9.152;2023-11-22T06:25:50;2.13;;;1.38;;
12296;SDS011;6211;49.124;9.152;2023-11-22T06:28:17;1.95;;;1.13;;
12296;SDS011;6211;49.124;9.152;2023-11-22T06:30:44;1.23;;;1.13;;
12296;SDS011;6211;49.124;9.152;2023-11-22T06:33:11;1.65;;;1.35;;
12296;SDS011;6211;49.124;9.152;2023-11-22T06:35:39;2.30;;;1.60;;
12296;SDS011;6211;49.124;9.152;2023-11-22T06:38:07;1.48;;;1.38;;
12296;SDS011;6211;49.124;9.152;2023-11-22T06:40:34;1.50;;;1.05;;
12296;SDS011;6211;49.124;9.152;2023-11-22T06:43:03;1.30;;;1.20;;
12296;SDS011;6211;49.124;9.152;2023-11-22T06:45:30;1.90;;;1.23;;
12296;SDS011;6211;49.124;9.152;2023-11-22T06:47:57;1.35;;;1.02;;
12296;SDS011;6211;49.124;9.152;2023-11-22T06:50:24;1.23;;;1.15;;
12296;SDS011;6211;49.124;9.152;2023-11-22T06:52:51;2.10;;;1.75;;
12296;SDS011;6211;49.124;9.152;2023-11-22T06:55:19;1.63;;;1.38;;
12296;SDS011;6211;49.124;9.152;2023-11-22T06:57:47;1.17;;;1.10;;
12296;SDS011;6211;49.124;9.152;2023-11-22T07:00:17;0.77;;;0.77;;
12296;SDS011;6211;49.124;9.152;2023-11-22T07:02:45;2.03;;;1.80;;
12296;SDS011;6211;49.124;9.152;2023-11-22T07:05:12;1.42;;;1.30;;
12296;SDS011;6211;49.124;9.152;2023-11-22T07:07:39;1.60;;;1.40;;
12296;SDS011;6211;49.124;9.152;2023-11-22T07:10:07;1.15;;;1.05;;
12296;SDS011;6211;49.124;9.152;2023-11-22T07:12:36;1.27;;;1.17;;
12296;SDS011;6211;49.124;9.152;2023-11-22T07:15:05;1.75;;;1.25;;
12296;SDS011;6211;49.124;9.152;2023-11-22T07:17:34;1.35;;;0.95;;
12296;SDS011;6211;49.124;9.152;2023-11-22T07:20:01;1.38;;;1.23;;
12296;SDS011;6211;49.124;9.152;2023-11-22T07:22:33;1.50;;;1.40;;
12296;SDS011;6211;49.124;9.152;2023-11-22T07:25:00;1.67;;;1.58;;
12296;SDS011;6211;49.124;9.152;2023-11-22T07:27:28;4.25;;;1.33;;
12296;SDS011;6211;49.124;9.152;2023-11-22T07:29:56;1.67;;;1.42;;
12296;SDS011;6211;49.124;9.152;2023-11-22T07:32:24;1.20;;;1.10;;
12296;SDS011;6211;49.124;9.152;2023-11-22T07:34:52;1.50;;;1.40;;
12296;SDS011;6211;49.124;9.152;2023-11-22T07:37:21;1.77;;;1.35;;
12296;SDS011;6211;49.124;9.152;2023-11-22T07:39:48;1.50;;;1.30;;
12296;SDS011;6211;49.124;9.152;2023-11-22T07:42:16;1.63;;;1.38;;
12296;SDS011;6211;49.124;9.152;2023-11-22T07:44:43;1.85;;;1.23;;
12296;SDS011;6211;49.124;9.152;2023-11-22T07:47:11;1.20;;;1.10;;
12296;SDS011;6211;49.124;9.152;2023-11-22T07:49:38;1.63;;;1.52;;
12296;SDS011;6211;49.124;9.152;2023-11-22T07:52:08;3.15;;;2.03;;
12296;SDS011;6211;49.124;9.152;2023-11-22T07:54:38;2.80;;;2.28;;
12296;SDS011;6211;49.124;9.152;2023-11-22T07:57:05;2.13;;;2.03;;
12296;SDS011;6211;49.124;9.152;2023-11-22T07:59:33;2.90;;;1.95;;
12296;SDS011;6211;49.124;9.152;2023-11-22T08:02:02;2.10;;;1.63;;
12296;SDS011;6211;49.124;9.152;2023-11-22T08:04:31;2.83;;;2.17;;
12296;SDS011;6211;49.124;9.152;2023-11-22T08:06:59;2.60;;;2.30;;
12296;SDS011;6211;49.124;9.152;2023-11-22T08:09:27;2.15;;;1.65;;
12296;SDS011;6211;49.124;9.152;2023-11-22T08:11:57;1.65;;;1.50;;
12296;SDS011;6211;49.124;9.152;2023-11-22T08:14:25;2.13;;;1.92;;
12296;SDS011;6211;49.124;9.152;2023-11-22T08:16:53;4.25;;;1.98;;
12296;SDS011;6211;49.124;9.152;2023-11-22T08:19:20;2.60;;;2.17;;
12296;SDS011;6211;49.124;9.152;2023-11-22T08:21:48;1.45;;;1.35;;
12296;SDS011;6211;49.124;9.152;2023-11-22T08:24:15;2.72;;;2.25;;
12296;SDS011;6211;49.124;9.152;2023-11-22T08:26:45;2.30;;;1.83;;
12296;SDS011;6211;49.124;9.152;2023-11-22T08:29:12;1.67;;;1.58;;
12296;SDS011;6211;49.124;9.152;2023-11-22T08:31:39;2.13;;;1.35;;
12296;SDS011;6211;49.124;9.152;2023-11-22T08:34:06;2.08;;;1.88;;
12296;SDS011;6211;49.124;9.152;2023-11-22T08:36:34;2.47;;;1.63;;
12296;SDS011;6211;49.124;9.152;2023-11-22T08:39:01;1.77;;;1.45;;
12296;SDS011;6211;49.124;9.152;2023-11-22T08:41:29;3.33;;;1.63;;
12296;SDS011;6211;49.124;9.152;2023-11-22T08:43:58;2.47;;;1.80;;
12296;SDS011;6211;49.124;9.152;2023-11-22T08:46:26;3.25;;;1.85;;
12296;SDS011;6211;49.124;9.152;2023-11-22T08:48:53;1.98;;;1.88;;
12296;SDS011;6211;49.124;9.152;2023-11-22T08:51:21;1.38;;;1.25;;
12296;SDS011;6211;49.124;9.152;2023-11-22T08:53:48;2.65;;;1.90;;
12296;SDS011;6211;49.124;9.152;2023-11-22T08:56:16;3.92;;;1.67;;
12296;SDS011;6211;49.124;9.152;2023-11-22T08:58:43;2.92;;;2.45;;
12296;SDS011;6211;49.124;9.152;2023-11-22T09:01:11;3.15;;;1.67;;
12296;SDS011;6211;49.124;9.152;2023-11-22T09:03:39;2.28;;;1.73;;
12296;SDS011;6211;49.124;9.152;2023-11-22T09:06:08;2.13;;;1.95;;
12296;SDS011;6211;49.124;9.152;2023-11-22T09:08:35;1.90;;;1.58;;
12296;SDS011;6211;49.124;9.152;2023-11-22T09:11:03;2.35;;;1.80;;
12296;SDS011;6211;49.124;9.152;2023-11-22T09:13:31;2.90;;;1.58;;
12296;SDS011;6211;49.124;9.152;2023-11-22T09:15:59;2.65;;;1.77;;
12296;SDS011;6211;49.124;9.152;2023-11-22T09:18:31;2.45;;;1.75;;
12296;SDS011;6211;49.124;9.152;2023-11-22T09:20:58;2.30;;;1.55;;
12296;SDS011;6211;49.124;9.152;2023-11-22T09:23:25;2.35;;;1.98;;
12296;SDS011;6211;49.124;9.152;2023-11-22T09:25:52;2.08;;;1.48;;
12296;SDS011;6211;49.124;9.152;2023-11-22T09:28:19;2.25;;;1.75;;
12296;SDS011;6211;49.124;9.152;2023-11-22T09:30:47;2.05;;;1.80;;
12296;SDS011;6211;49.124;9.152;2023-11-22T09:33:14;2.45;;;2.10;;
12296;SDS011;6211;49.124;9.152;2023-11-22T09:35:44;3.92;;;2.28;;
12296;SDS011;6211;49.124;9.152;2023-11-22T09:38:12;4.30;;;2.25;;
12296;SDS011;6211;49.124;9.152;2023-11-22T09:40:41;1.58;;;1.25;;
12296;SDS011;6211;49.124;9.152;2023-11-22T09:43:08;2.67;;;1.77;;
12296;SDS011;6211;49.124;9.152;2023-11-22T09:45:36;2.35;;;1.80;;
12296;SDS011;6211;49.124;9.152;2023-11-22T09:48:04;2.78;;;1.98;;
12296;SDS011;6211;49.124;9.152;2023-11-22T09:50:35;2.40;;;2.00;;
12296;SDS011;6211;49.124;9.152;2023-11-22T09:53:10;2.42;;;1.75;;
12296;SDS011;6211;49.124;9.152;2023-11-22T09:55:38;2.75;;;2.13;;
12296;SDS011;6211;49.124;9.152;2023-11-22T09:58:08;2.40;;;1.65;;
12296;SDS011;6211;49.124;9.152;2023-11-22T10:00:37;1.88;;;1.63;;
12296;SDS011;6211;49.124;9.152;2023-11-22T10:03:06;2.22;;;1.80;;
12296;SDS011;6211;49.124;9.152;2023-11-22T10:05:33;1.70;;;1.60;;
12296;SDS011;6211;49.124;9.152;2023-11-22T10:08:00;3.75;;;2.10;;
12296;SDS011;6211;49.124;9.152;2023-11-22T10:10:29;2.20;;;2.00;;
12296;SDS011;6211;49.124;9.152;2023-11-22T10:12:57;2.38;;;1.70;;
12296;SDS011;6211;49.124;9.152;2023-11-22T10:15:27;4.78;;;2.53;;
12296;SDS011;6211;49.124;9.152;2023-11-22T10:17:54;4.07;;;2.50;;
12296;SDS011;6211;49.124;9.152;2023-11-22T10:20:23;2.58;;;2.05;;
12296;SDS011;6211;49.124;9.152;2023-11-22T10:22:51;3.03;;;2.35;;
12296;SDS011;6211;49.124;9.152;2023-11-22T10:25:19;2.83;;;1.98;;
12296;SDS011;6211;49.124;9.152;2023-11-22T10:27:49;4.57;;;2.60;;
12296;SDS011;6211;49.124;9.152;2023-11-22T10:30:17;3.45;;;2.00;;
12296;SDS011;6211;49.124;9.152;2023-11-22T10:32:44;2.55;;;2.10;;
12296;SDS011;6211;49.124;9.152;2023-11-22T10:35:12;2.13;;;1.60;;
12296;SDS011;6211;49.124;9.152;2023-11-22T10:37:41;2.58;;;2.13;;
12296;SDS011;6211;49.124;9.152;2023-11-22T10:40:10;2.90;;;1.83;;
12296;SDS011;6211;49.124;9.152;2023-11-22T10:42:39;2.10;;;1.88;;
12296;SDS011;6211;49.124;9.152;2023-11-22T10:45:09;2.13;;;1.92;;
12296;SDS011;6211;49.124;9.152;2023-11-22T10:47:37;5.32;;;2.33;;
12296;SDS011;6211;49.124;9.152;2023-11-22T10:50:07;3.72;;;2.10;;
12296;SDS011;6211;49.124;9.152;2023-11-22T10:52:35;3.17;;;2.00;;
12296;SDS011;6211;49.124;9.152;2023-11-22T10:55:04;2.28;;;1.85;;
12296;SDS011;6211;49.124;9.152;2023-11-22T10:57:32;2.97;;;1.92;;
12296;SDS011;6211;49.124;9.152;2023-11-22T11:00:00;2.63;;;1.65;;
12296;SDS011;6211;49.124;9.152;2023-11-22T11:02:32;3.38;;;2.70;;
12296;SDS011;6211;49.124;9.152;2023-11-22T11:05:03;2.90;;;2.40;;
12296;SDS011;6211;49.124;9.152;2023-11-22T11:07:37;3.97;;;1.75;;
12296;SDS011;6211;49.124;9.152;2023-11-22T11:10:07;3.33;;;2.40;;
12296;SDS011;6211;49.124;9.152;2023-11-22T11:12:35;4.35;;;2.05;;
12296;SDS011;6211;49.124;9.152;2023-11-22T11:15:02;2.67;;;2.08;;
12296;SDS011;6211;49.124;9.152;2023-11-22T11:17:31;1.98;;;1.83;;
12296;SDS011;6211;49.124;9.152;2023-11-22T11:19:59;2.17;;;1.75;;
12296;SDS011;6211;49.124;9.152;2023-11-22T11:22:26;3.10;;;2.05;;
12296;SDS011;6211;49.124;9.152;2023-11-22T11:24:59;2.60;;;2.08;;
12296;SDS011;6211;49.124;9.152;2023-11-22T11:27:28;3.72;;;2.05;;
12296;SDS011;6211;49.124;9.152;2023-11-22T11:29:55;3.53;;;1.90;;
12296;SDS011;6211;49.124;9.152;2023-11-22T11:32:29;2.88;;;2.38;;
12296;SDS011;6211;49.124;9.152;2023-11-22T11:34:59;3.65;;;1.73;;
12296;SDS011;6211;49.124;9.152;2023-11-22T11:37:31;3.08;;;2.05;;
12296;SDS011;6211;49.124;9.152;2023-11-22T11:39:58;3.13;;;2.10;;
12296;SDS011;6211;49.124;9.152;2023-11-22T11:42:26;2.90;;;2.25;;
12296;SDS011;6211;49.124;9.152;2023-11-22T11:45:03;2.30;;;1.85;;
12296;SDS011;6211;49.124;9.152;2023-11-22T11:47:31;3.65;;;2.30;;
12296;SDS011;6211;49.124;9.152;2023-11-22T11:50:00;2.83;;;2.33;;
12296;SDS011;6211;49.124;9.152;2023-11-22T11:52:27;4.38;;;2.42;;
12296;SDS011;6211;49.124;9.152;2023-11-22T11:54:55;3.05;;;2.33;;
12296;SDS011;6211;49.124;9.152;2023-11-22T11:57:23;3.35;;;2.33;;
12296;SDS011;6211;49.124;9.152;2023-11-22T11:59:50;2.83;;;2.30;;
12296;SDS011;6211;49.124;9.152;2023-11-22T12:02:20;4.18;;;2.60;;
12296;SDS011;6211;49.124;9.152;2023-11-22T12:04:48;3.97;;;2.65;;
12296;SDS011;6211;49.124;9.152;2023-11-22T12:07:16;2.83;;;2.08;;
12296;SDS011;6211;49.124;9.152;2023-11-22T12:09:43;4.32;;;2.40;;
12296;SDS011;6211;49.124;9.152;2023-11-22T12:12:11;2.35;;;2.10;;
12296;SDS011;6211;49.124;9.152;2023-11-22T12:14:38;2.45;;;2.22;;
12296;SDS011;6211;49.124;9.152;2023-11-22T12:17:06;4.53;;;2.78;;
12296;SDS011;6211;49.124;9.152;2023-11-22T12:19:33;3.67;;;2.53;;
12296;SDS011;6211;49.124;9.152;2023-11-22T12:22:00;3.38;;;2.22;;
12296;SDS011;6211;49.124;9.152;2023-11-22T12:24:29;2.75;;;2.15;;
12296;SDS011;6211;49.124;9.152;2023-11-22T12:26:56;2.97;;;2.28;;
12296;SDS011;6211;49.124;9.152;2023-11-22T12:29:23;2.88;;;2.13;;
12296;SDS011;6211;49.124;9.152;2023-11-22T12:31:50;4.15;;;2.40;;
12296;SDS011;6211;49.124;9.152;2023-11-22T12:34:20;2.75;;;2.20;;
12296;SDS011;6211;49.124;9.152;2023-11-22T12:36:48;2.65;;;2.20;;
12296;SDS011;6211;49.124;9.152;2023-11-22T12:39:15;2.90;;;2.20;;
12296;SDS011;6211;49.124;9.152;2023-11-22T12:41:44;3.88;;;2.38;;
12296;SDS011;6211;49.124;9.152;2023-11-22T12:44:12;2.42;;;2.20;;
12296;SDS011;6211;49.124;9.152;2023-11-22T12:46:48;3.80;;;2.58;;
12296;SDS011;6211;49.124;9.152;2023-11-22T12:49:22;4.10;;;2.28;;
12296;SDS011;6211;49.124;9.152;2023-11-22T12:51:49;4.47;;;2.42;;
12296;SDS011;6211;49.124;9.152;2023-11-22T12:54:17;4.72;;;2.25;;
12296;SDS011;6211;49.124;9.152;2023-11-22T12:56:47;4.43;;;2.55;;
12296;SDS011;6211;49.124;9.152;2023-11-22T12:59:15;4.10;;;2.70;;
12296;SDS011;6211;49.124;9.152;2023-11-22T13:01:43;3.25;;;2.25;;
12296;SDS011;6211;49.124;9.152;2023-11-22T13:04:10;4.05;;;2.50;;
12296;SDS011;6211;49.124;9.152;2023-11-22T13:06:39;2.03;;;1.92;;
12296;SDS011;6211;49.124;9.152;2023-11-22T13:09:07;4.57;;;2.50;;
12296;SDS011;6211;49.124;9.152;2023-11-22T13:11:39;3.17;;;2.22;;
12296;SDS011;6211;49.124;9.152;2023-11-22T13:14:07;5.43;;;2.28;;
12296;SDS011;6211;49.124;9.152;2023-11-22T13:16:35;3.35;;;2.38;;
12296;SDS011;6211;49.124;9.152;2023-11-22T13:19:04;4.55;;;2.75;;
12296;SDS011;6211;49.124;9.152;2023-11-22T13:21:31;2.97;;;2.13;;
12296;SDS011;6211;49.124;9.152;2023-11-22T13:23:58;4.75;;;2.53;;
12296;SDS011;6211;49.124;9.152;2023-11-22T13:26:25;3.97;;;2.78;;
12296;SDS011;6211;49.124;9.152;2023-11-22T13:28:52;5.18;;;2.55;;
12296;SDS011;6211;49.124;9.152;2023-11-22T13:31:22;2.22;;;1.83;;
12296;SDS011;6211;49.124;9.152;2023-11-22T13:33:49;2.85;;;2.28;;
12296;SDS011;6211;49.124;9.152;2023-11-22T13:36:16;2.85;;;2.40;;
12296;SDS011;6211;49.124;9.152;2023-11-22T13:38:43;2.85;;;2.25;;
12296;SDS011;6211;49.124;9.152;2023-11-22T13:41:10;5.78;;;2.80;;
12296;SDS011;6211;49.124;9.152;2023-11-22T13:43:38;2.17;;;1.90;;
12296;SDS011;6211;49.124;9.152;2023-11-22T13:46:05;6.15;;;2.70;;
12296;SDS011;6211;49.124;9.152;2023-11-22T13:48:36;6.72;;;2.72;;
12296;SDS011;6211;49.124;9.152;2023-11-22T13:51:03;2.92;;;2.38;;
12296;SDS011;6211;49.124;9.152;2023-11-22T13:53:32;2.75;;;2.28;;
12296;SDS011;6211;49.124;9.152;2023-11-22T13:56:03;2.83;;;2.35;;
12296;SDS011;6211;49.124;9.152;2023-11-22T13:58:33;4.68;;;2.85;;
12296;SDS011;6211;49.124;9.152;2023-11-22T14:01:00;3.47;;;2.53;;
12296;SDS011;6211;49.124;9.152;2023-11-22T14:03:31;3.58;;;2.20;;
12296;SDS011;6211;49.124;9.152;2023-11-22T14:05:59;3.47;;;2.15;;
12296;SDS011;6211;49.124;9.152;2023-11-22T14:08:29;2.95;;;2.28;;
12296;SDS011;6211;49.124;9.152;2023-11-22T14:10:57;3.47;;;2.30;;
12296;SDS011;6211;49.124;9.152;2023-11-22T14:13:24;4.82;;;2.85;;
12296;SDS011;6211;49.124;9.152;2023-11-22T14:15:51;5.13;;;2.58;;
12296;SDS011;6211;49.124;9.152;2023-11-22T14:18:18;7.50;;;2.90;;
12296;SDS011;6211;49.124;9.152;2023-11-22T14:20:45;5.93;;;2.83;;
12296;SDS011;6211;49.124;9.152;2023-11-22T14:23:14;3.75;;;2.60;;
12296;SDS011;6211;49.124;9.152;2023-11-22T14:25:42;3.90;;;2.40;;
12296;SDS011;6211;49.124;9.152;2023-11-22T14:28:09;3.05;;;2.42;;
12296;SDS011;6211;49.124;9.152;2023-11-22T14:30:36;3.80;;;3.10;;
12296;SDS011;6211;49.124;9.152;2023-11-22T14:33:03;4.50;;;3.13;;
12296;SDS011;6211;49.124;9.152;2023-11-22T14:35:32;3.95;;;3.38;;
12296;SDS011;6211;49.124;9.152;2023-11-22T14:38:00;5.60;;;2.22;;
12296;SDS011;6211;49.124;9.152;2023-11-22T14:40:29;3.03;;;2.47;;
12296;SDS011;6211;49.124;9.152;2023-11-22T14:42:58;4.70;;;2.63;;
12296;SDS011;6211;49.124;9.152;2023-11-22T14:45:27;3.35;;;2.22;;
12296;SDS011;6211;49.124;9.152;2023-11-22T14:47:55;5.28;;;3.03;;
12296;SDS011;6211;49.124;9.152;2023-11-22T14:50:22;3.10;;;2.35;;
12296;SDS011;6211;49.124;9.152;2023-11-22T14:52:52;5.47;;;3.03;;
12296;SDS011;6211;49.124;9.152;2023-11-22T14:55:19;4.97;;;3.22;;
12296;SDS011;6211;49.124;9.152;2023-11-22T14:57:51;3.65;;;2.92;;
12296;SDS011;6211;49.124;9.152;2023-11-22T15:00:19;2.55;;;2.25;;
12296;SDS011;6211;49.124;9.152;2023-11-22T15:02:46;3.08;;;2.50;;
12296;SDS011;6211;49.124;9.152;2023-11-22T15:05:19;3.45;;;2.38;;